Time;durP1;ratioP1;P1;durP2;ratioP2;P2;SDS_P1;SDS_P2;PMS_P1;PMS_P2;Temp;Humidity;BMP_temperature;BMP_pressure;BME280_temperature;BME280_humidity;BME280_pressure;Samples;Min_cycle;Max_cycle;Signal;HPM_P1;HPM_P2
2021/08/28 00:05:16;;;;;;;4.63;4.22;;;;;;;15.68;75.16;95553.88;5001241;28;20214;-87
2021/08/28 00:07:51;;;;;;;5.20;4.60;;;;;;;15.66;76.22;95546.31;5008450;28;20207;-86
2021/08/28 00:16:06;;;;;;;5.25;4.55;;;;;;;15.72;76.38;95547.28;4998034;28;20236;-87
2021/08/28 00:18:42;;;;;;;4.30;3.90;;;;;;;15.72;75.83;95542.88;5007857;28;20686;-87
2021/08/28 00:21:28;;;;;;;4.57;3.97;;;;;;;15.66;75.91;95542.91;5028051;28;20660;-87
2021/08/28 00:24:00;;;;;;;4.60;4.20;;;;;;;15.62;76.58;95546.94;5010170;28;20246;-86
2021/08/28 00:26:29;;;;;;;4.72;3.92;;;;;;;15.62;76.31;95541.75;5008392;28;20203;-87
2021/08/28 00:32:24;;;;;;;4.13;3.80;;;;;;;15.60;76.95;95530.75;4997607;28;20207;-87
2021/08/28 00:35:19;;;;;;;6.22;3.72;;;;;;;15.62;77.57;95532.16;5008265;28;20262;-85
2021/08/28 00:37:48;;;;;;;4.07;3.35;;;;;;;15.63;77.45;95538.13;5006655;28;20221;-87
2021/08/28 00:40:46;;;;;;;3.85;3.55;;;;;;;15.63;77.44;95530.34;5013891;28;20234;-86
2021/08/28 00:43:16;;;;;;;3.55;3.25;;;;;;;15.61;77.49;95527.97;5031838;28;20318;-86
2021/08/28 00:46:09;;;;;;;4.30;3.75;;;;;;;15.59;77.46;95529.97;5031202;28;20234;-88
2021/08/28 00:48:45;;;;;;;5.25;3.30;;;;;;;15.54;78.60;95528.00;5030972;28;20637;-87
2021/08/28 00:51:38;;;;;;;3.38;3.03;;;;;;;15.48;79.08;95523.63;5031218;28;20206;-86
2021/08/28 00:54:25;;;;;;;3.45;3.13;;;;;;;15.46;79.48;95520.44;5021922;28;20325;-86
2021/08/28 00:57:07;;;;;;;3.85;3.17;;;;;;;15.42;79.81;95527.03;5021405;28;20241;-86
2021/08/28 01:05:44;;;;;;;3.22;2.92;;;;;;;15.46;79.56;95527.44;5009715;28;20198;-87
2021/08/28 01:15:15;;;;;;;3.40;3.10;;;;;;;15.44;80.44;95525.03;5003985;28;20230;-86
2021/08/28 01:18:19;;;;;;;3.50;3.20;;;;;;;15.43;79.95;95520.84;5020986;28;20955;-86
2021/08/28 01:21:01;;;;;;;3.27;3.00;;;;;;;15.38;81.40;95525.88;5010694;28;20267;-87
2021/08/28 01:32:37;;;;;;;3.10;2.77;;;;;;;15.46;80.88;95536.00;5010600;28;20590;-86
2021/08/28 01:35:29;;;;;;;3.80;3.40;;;;;;;15.42;82.37;95532.22;5010649;28;20222;-87
2021/08/28 01:38:05;;;;;;;4.20;3.57;;;;;;;15.43;82.55;95527.84;5010789;28;20218;-88
2021/08/28 01:40:53;;;;;;;3.90;3.60;;;;;;;15.40;83.72;95528.25;5009908;28;20226;-86
2021/08/28 01:43:33;;;;;;;;;;;;;;;;;;;;;
2021/08/28 01:46:32;;;;;;;3.80;3.50;;;;;;;15.32;85.85;95534.50;5008894;28;20727;-86
2021/08/28 01:52:41;;;;;;;4.07;3.67;;;;;;;15.30;84.78;95530.50;5000167;28;20210;-87
2021/08/28 01:55:12;;;;;;;5.63;3.73;;;;;;;15.27;85.13;95530.91;5002706;28;20600;-88
2021/08/28 01:57:41;;;;;;;5.00;4.30;;;;;;;15.28;84.63;95527.31;5011229;28;20230;-86
2021/08/28 02:00:12;;;;;;;4.83;3.70;;;;;;;15.27;84.92;95533.50;5010150;28;20313;-86
2021/08/28 02:02:43;;;;;;;4.10;3.80;;;;;;;15.23;86.08;95529.72;5010501;28;20201;-87
2021/08/28 02:05:18;;;;;;;5.20;4.53;;;;;;;15.26;85.41;95529.31;5010239;28;20725;-87
2021/08/28 02:08:17;;;;;;;5.33;4.30;;;;;;;15.28;85.25;95529.91;5011706;28;20212;-86
2021/08/28 02:10:52;;;;;;;5.00;3.97;;;;;;;15.22;86.41;95531.53;5011681;28;20219;-86
2021/08/28 02:13:29;;;;;;;5.67;4.50;;;;;;;15.21;86.07;95529.94;5011193;28;20233;-87
2021/08/28 02:16:11;;;;;;;5.50;4.67;;;;;;;15.14;86.33;95529.19;5011706;28;20234;-89
2021/08/28 02:19:23;;;;;;;5.40;4.90;;;;;;;15.19;86.50;95519.78;5027638;28;20198;-87
2021/08/28 02:22:09;;;;;;;5.97;4.97;;;;;;;15.16;86.68;95515.00;5023555;28;20194;-87
2021/08/28 02:24:53;;;;;;;5.23;4.73;;;;;;;15.16;86.09;95522.00;4993588;28;20689;-86
2021/08/28 02:27:41;;;;;;;5.30;4.80;;;;;;;15.19;86.82;95521.59;5009971;28;20207;-87
2021/08/28 02:30:20;;;;;;;5.53;4.87;;;;;;;15.18;86.53;95517.41;5009962;28;20222;-87
2021/08/28 02:33:03;;;;;;;5.23;4.80;;;;;;;15.20;86.48;95520.59;5010098;28;20266;-88
2021/08/28 02:35:34;;;;;;;5.23;4.50;;;;;;;15.21;86.91;95520.34;5010019;28;20290;-86
2021/08/28 02:38:19;;;;;;;5.43;4.83;;;;;;;15.20;86.52;95515.41;5010304;28;20287;-87
2021/08/28 02:41:05;;;;;;;5.20;4.70;;;;;;;15.23;87.55;95516.75;5009706;28;20269;-86
2021/08/28 02:43:42;;;;;;;5.07;4.60;;;;;;;15.25;86.69;95518.16;5009867;28;20609;-87
2021/08/28 02:46:12;;;;;;;5.30;4.90;;;;;;;15.26;87.30;95519.75;5009859;28;20206;-86
2021/08/28 02:48:41;;;;;;;6.37;5.00;;;;;;;15.26;86.44;95511.16;5010173;28;20194;-88
2021/08/28 02:51:11;;;;;;;6.67;5.20;;;;;;;15.17;86.34;95508.81;5020534;28;20349;-87
2021/08/28 02:53:48;;;;;;;5.33;4.87;;;;;;;15.14;86.30;95511.03;5009698;28;20339;-87
2021/08/28 02:56:17;;;;;;;6.60;5.10;;;;;;;15.16;87.24;95511.63;5009837;28;20248;-87
2021/08/28 02:58:44;;;;;;;4.83;4.43;;;;;;;15.14;87.02;95506.63;5009130;28;20298;-88
2021/08/28 03:01:14;;;;;;;5.47;5.00;;;;;;;15.15;87.27;95508.22;5008927;28;20214;-86
2021/08/28 03:03:45;;;;;;;5.50;4.40;;;;;;;15.11;86.91;95511.44;5009389;28;20277;-87
2021/08/28 03:06:20;;;;;;;5.20;4.70;;;;;;;14.96;88.06;95505.72;5009120;28;20196;-88
2021/08/28 03:08:55;;;;;;;5.43;4.80;;;;;;;15.03;88.25;95501.28;5008912;28;20230;-86
2021/08/28 03:11:22;;;;;;;5.13;4.60;;;;;;;14.93;88.80;95503.53;5009185;28;20206;-87
2021/08/28 03:13:52;;;;;;;4.60;4.20;;;;;;;14.96;88.85;95505.72;5009349;28;20720;-87
2021/08/28 03:16:23;;;;;;;4.40;4.00;;;;;;;15.00;88.22;95497.34;5009025;28;20230;-86
2021/08/28 03:18:56;;;;;;;4.50;4.10;;;;;;;14.93;88.73;95506.91;5010657;28;20254;-84
2021/08/28 03:21:27;;;;;;;4.30;3.93;;;;;;;14.97;88.97;95504.72;5021058;28;20904;-84
2021/08/28 03:24:07;;;;;;;4.23;3.90;;;;;;;14.94;88.98;95498.16;5025369;28;20222;-87
2021/08/28 03:26:34;;;;;;;4.70;4.30;;;;;;;14.94;89.72;95492.16;5028105;28;20201;-87
2021/08/28 03:29:05;;;;;;;4.57;4.10;;;;;;;14.90;89.56;95504.72;5028322;28;20297;-87
2021/08/28 03:31:35;;;;;;;4.13;3.83;;;;;;;14.93;89.58;95498.34;5028699;28;20208;-86
2021/08/28 03:34:08;;;;;;;5.40;4.23;;;;;;;14.96;89.00;95495.34;5028879;28;20708;-87
2021/08/28 03:36:40;;;;;;;4.30;3.67;;;;;;;14.99;88.99;95498.34;5028709;28;20206;-89
2021/08/28 03:39:12;;;;;;;4.50;4.10;;;;;;;15.01;88.57;95490.34;5028069;28;20221;-86
2021/08/28 03:41:44;;;;;;;4.27;3.87;;;;;;;15.03;88.62;95488.31;5028420;28;20213;-86
2021/08/28 03:44:16;;;;;;;4.47;4.07;;;;;;;14.98;89.26;95488.97;5028529;28;20688;-87
2021/08/28 03:46:43;;;;;;;4.20;3.83;;;;;;;15.02;88.34;95494.50;5028892;28;20206;-87
2021/08/28 03:49:13;;;;;;;4.47;4.07;;;;;;;14.96;88.15;95496.16;5028282;28;20297;-87
2021/08/28 03:51:43;;;;;;;4.00;3.57;;;;;;;15.00;87.78;95501.72;5028229;28;20206;-87
2021/08/28 03:54:13;;;;;;;4.27;3.90;;;;;;;15.02;88.56;95495.31;5029079;28;20225;-84
2021/08/28 03:56:42;;;;;;;4.53;4.13;;;;;;;14.99;90.21;95498.34;5028540;28;20208;-83
2021/08/28 03:59:09;;;;;;;4.47;3.97;;;;;;;15.00;89.87;95499.13;5028497;28;20308;-84
2021/08/28 04:01:35;;;;;;;4.90;3.90;;;;;;;15.02;89.34;95497.09;5028434;28;20234;-85
2021/08/28 04:04:02;;;;;;;4.67;4.27;;;;;;;15.00;89.38;95497.34;5028496;28;20198;-85
2021/08/28 04:06:28;;;;;;;4.50;4.10;;;;;;;14.98;89.91;95499.34;5028506;28;20233;-85
2021/08/28 04:08:59;;;;;;;4.90;4.37;;;;;;;15.02;89.94;95504.88;5028366;28;20202;-84
2021/08/28 04:11:26;;;;;;;4.80;4.40;;;;;;;14.98;90.91;95511.50;5028025;28;20209;-84
2021/08/28 04:13:52;;;;;;;4.77;4.27;;;;;;;15.00;90.77;95502.50;5031600;28;20665;-84
2021/08/28 04:16:19;;;;;;;5.77;4.80;;;;;;;14.97;92.21;95499.53;5031873;28;20210;-84
2021/08/28 04:18:46;;;;;;;4.57;4.00;;;;;;;14.95;91.27;95496.34;5031730;28;20202;-84
2021/08/28 04:21:12;;;;;;;4.00;3.43;;;;;;;14.85;91.54;95502.75;5031650;28;20202;-85
2021/08/28 04:23:42;;;;;;;4.03;3.57;;;;;;;14.85;91.85;95507.13;5016753;28;20234;-85
2021/08/28 04:26:09;;;;;;;3.57;3.27;;;;;;;14.81;92.29;95503.38;5011886;28;20846;-84
2021/08/28 04:28:45;;;;;;;3.93;3.43;;;;;;;14.72;92.49;95500.22;5011870;28;20199;-85
2021/08/28 04:31:21;;;;;;;5.17;4.00;;;;;;;14.73;92.62;95501.81;5011698;28;20281;-85
2021/08/28 04:33:54;;;;;;;4.10;3.70;;;;;;;14.78;92.07;95498.59;5012302;28;20206;-84
2021/08/28 04:36:24;;;;;;;6.00;3.93;;;;;;;14.83;92.04;95507.34;5011983;28;20544;-85
2021/08/28 04:38:51;;;;;;;4.17;3.73;;;;;;;14.85;91.98;95499.34;5011651;28;20195;-84
2021/08/28 04:41:19;;;;;;;4.60;3.83;;;;;;;14.76;92.66;95498.81;5011880;28;20206;-85
2021/08/28 04:43:45;;;;;;;4.20;3.80;;;;;;;14.74;92.18;95503.41;5011849;28;20285;-84
2021/08/28 04:46:15;;;;;;;4.00;3.70;;;;;;;14.72;91.79;95502.00;5011795;28;20203;-84
2021/08/28 04:48:45;;;;;;;4.80;3.90;;;;;;;14.74;92.73;95508.56;5027202;28;20729;-86
2021/08/28 04:51:14;;;;;;;4.37;3.97;;;;;;;14.73;94.48;95513.97;5031366;28;20350;-85
2021/08/28 04:53:51;;;;;;;4.60;4.20;;;;;;;14.77;93.96;95515.94;5031334;28;20209;-84
2021/08/28 04:56:19;;;;;;;4.43;4.03;;;;;;;14.80;93.73;95507.78;5030733;28;20198;-85
2021/08/28 04:58:45;;;;;;;5.30;4.23;;;;;;;14.85;93.46;95517.50;5030976;28;20202;-85
2021/08/28 05:01:12;;;;;;;5.07;4.63;;;;;;;14.84;92.36;95510.72;5031097;28;20744;-84
2021/08/28 05:03:40;;;;;;;5.97;4.27;;;;;;;14.88;91.93;95514.50;5031316;28;20198;-84
2021/08/28 05:06:07;;;;;;;6.50;4.50;;;;;;;14.89;93.61;95515.31;5031031;28;20257;-84
2021/08/28 05:08:34;;;;;;;4.87;4.47;;;;;;;14.92;92.71;95515.69;5030550;28;20186;-84
2021/08/28 05:11:03;;;;;;;4.90;4.40;;;;;;;14.91;93.17;95515.91;5030633;28;20331;-84
2021/08/28 05:13:39;;;;;;;5.90;4.37;;;;;;;14.91;92.44;95519.28;5030889;28;20248;-84
2021/08/28 05:16:06;;;;;;;4.50;4.10;;;;;;;14.89;94.17;95515.31;5030973;28;20658;-84
2021/08/28 05:18:35;;;;;;;5.50;4.80;;;;;;;14.85;96.22;95520.91;5030250;28;20194;-85
2021/08/28 05:21:04;;;;;;;5.17;4.67;;;;;;;14.95;93.58;95522.28;5030660;28;20278;-84
2021/08/28 05:23:30;;;;;;;6.07;5.00;;;;;;;15.01;92.51;95524.06;5007851;28;20261;-84
2021/08/28 05:25:57;;;;;;;5.60;5.10;;;;;;;15.03;93.25;95522.03;5011154;28;20194;-84
2021/08/28 05:28:23;;;;;;;5.50;4.70;;;;;;;14.99;93.24;95524.25;5010993;28;20203;-84
2021/08/28 05:30:55;;;;;;;5.10;4.60;;;;;;;14.96;95.42;95532.44;5010567;28;20298;-84
2021/08/28 05:33:33;;;;;;;5.40;4.90;;;;;;;15.05;94.29;95533.00;5010836;28;20701;-85
2021/08/28 05:36:00;;;;;;;4.87;4.47;;;;;;;15.09;93.70;95529.00;5010492;28;20218;-83
2021/08/28 05:38:26;;;;;;;5.17;4.70;;;;;;;15.13;93.02;95530.19;5010771;28;20563;-85
2021/08/28 05:40:53;;;;;;;5.17;4.60;;;;;;;15.08;94.22;95530.78;5010348;28;20219;-84
2021/08/28 05:43:20;;;;;;;5.33;4.83;;;;;;;15.01;94.14;95530.00;5010545;28;20869;-84
2021/08/28 05:45:46;;;;;;;4.93;4.40;;;;;;;15.02;93.85;95526.41;5029792;28;20233;-84
2021/08/28 05:48:16;;;;;;;5.30;4.80;;;;;;;14.98;94.79;95537.44;5029917;28;20260;-84
2021/08/28 05:50:42;;;;;;;5.37;4.87;;;;;;;14.94;95.80;95534.44;5026189;28;20284;-83
2021/08/28 05:53:09;;;;;;;5.27;4.77;;;;;;;14.95;95.69;95546.41;5021319;28;20282;-84
2021/08/28 05:55:39;;;;;;;5.43;4.93;;;;;;;14.92;97.36;95528.66;5011595;28;20238;-84
2021/08/28 05:58:10;;;;;;;5.83;5.30;;;;;;;14.90;97.25;95532.44;5011410;28;20207;-83
2021/08/28 06:00:37;;;;;;;6.07;5.47;;;;;;;14.98;95.95;95527.84;5011115;28;20234;-84
2021/08/28 06:03:03;;;;;;;7.10;5.27;;;;;;;14.88;97.94;95532.66;5021056;28;20202;-86
2021/08/28 06:05:32;;;;;;;5.63;5.07;;;;;;;14.93;96.51;95529.47;5030452;28;20280;-86
2021/08/28 06:08:01;;;;;;;4.93;4.40;;;;;;;14.92;96.04;95520.09;5030636;28;20218;-85
2021/08/28 06:10:39;;;;;;;4.60;4.20;;;;;;;14.93;95.41;95525.06;5030509;28;20230;-87
2021/08/28 06:13:06;;;;;;;4.30;3.90;;;;;;;14.96;95.65;95523.88;5029854;28;20813;-87
2021/08/28 06:15:36;;;;;;;4.13;3.70;;;;;;;15.02;95.12;95525.63;5030505;28;20249;-87
2021/08/28 06:18:06;;;;;;;4.00;3.60;;;;;;;15.06;94.67;95521.63;5030577;28;20259;-85
2021/08/28 06:20:37;;;;;;;11.33;3.80;;;;;;;15.02;94.89;95525.63;5016246;28;20298;-85
2021/08/28 06:23:04;;;;;;;3.87;3.57;;;;;;;15.06;95.48;95527.59;5019652;28;20234;-87
2021/08/28 06:25:40;;;;;;;3.57;3.27;;;;;;;15.08;95.10;95525.59;5010037;28;20861;-87
2021/08/28 06:28:16;;;;;;;3.40;3.10;;;;;;;15.17;93.62;95534.75;5009318;28;20293;-86
2021/08/28 06:30:45;;;;;;;3.27;2.87;;;;;;;15.18;93.66;95527.78;5010204;28;20297;-87
2021/08/28 06:33:13;;;;;;;4.23;2.80;;;;;;;15.18;95.32;95525.97;5021098;28;20198;-87
2021/08/28 06:35:44;;;;;;;2.57;2.37;;;;;;;15.26;93.25;95530.13;5028949;28;20283;-86
2021/08/28 06:38:22;;;;;;;2.63;2.23;;;;;;;15.30;93.62;95530.50;5029189;28;20269;-86
2021/08/28 06:40:55;;;;;;;2.53;2.30;;;;;;;15.26;94.05;95537.91;5030575;28;20214;-86
2021/08/28 06:43:26;;;;;;;2.53;2.20;;;;;;;15.24;94.70;95533.91;5031579;28;20206;-87
2021/08/28 06:46:03;;;;;;;2.10;1.90;;;;;;;15.31;92.85;95525.13;5031109;28;20276;-86
2021/08/28 06:48:36;;;;;;;2.30;2.10;;;;;;;15.33;91.46;95530.91;5030874;28;20206;-86
2021/08/28 06:51:16;;;;;;;1.70;1.60;;;;;;;15.38;89.79;95531.06;5031888;28;20229;-86
2021/08/28 06:53:43;;;;;;;2.40;2.20;;;;;;;15.46;89.64;95523.03;5030137;28;20248;-86
2021/08/28 06:56:09;;;;;;;2.50;2.30;;;;;;;15.39;93.69;95534.47;5028654;28;20309;-85
2021/08/28 06:58:36;;;;;;;2.03;1.93;;;;;;;15.48;91.65;95539.19;5028818;28;20213;-86
2021/08/28 07:01:11;;;;;;;1.97;1.80;;;;;;;15.62;90.96;95533.94;5028650;28;20325;-88
2021/08/28 07:03:38;;;;;;;2.00;1.90;;;;;;;15.67;90.57;95540.13;5029231;28;20198;-86
2021/08/28 07:06:05;;;;;;;2.27;2.13;;;;;;;15.62;89.16;95541.75;5028780;28;20198;-86
2021/08/28 07:08:32;;;;;;;2.40;2.00;;;;;;;15.57;89.25;95539.78;5028397;28;20202;-86
2021/08/28 07:10:59;;;;;;;2.10;2.00;;;;;;;15.51;89.53;95546.56;5028668;28;20228;-85
2021/08/28 07:13:29;;;;;;;2.40;2.20;;;;;;;15.46;90.96;95546.38;5029413;28;20216;-87
2021/08/28 07:15:56;;;;;;;2.07;1.90;;;;;;;15.57;89.32;95542.38;5028876;28;20593;-86
2021/08/28 07:18:22;;;;;;;2.50;2.23;;;;;;;15.58;89.69;95543.19;5029382;28;20216;-85
2021/08/28 07:21:04;;;;;;;2.73;1.77;;;;;;;15.64;88.01;95539.72;5016083;28;20221;-85
2021/08/28 07:23:36;;;;;;;1.95;1.85;;;;;;;15.62;88.92;95536.53;5013200;28;20241;-86
2021/08/28 07:26:03;;;;;;;2.00;1.90;;;;;;;15.68;89.71;95539.13;5009785;28;20210;-85
2021/08/28 07:28:30;;;;;;;2.47;1.90;;;;;;;15.70;90.16;95531.91;5007531;28;20225;-85
2021/08/28 07:31:26;;;;;;;2.10;1.90;;;;;;;15.71;90.32;95533.50;5021146;28;20272;-88
2021/08/28 07:44:43;;;;;;;2.97;2.78;;;;;;;15.83;88.79;95537.00;4923892;29;20212;-84
2021/08/28 08:03:51;;;;;;;12.27;11.02;;;;;;;17.12;80.97;95540.69;5056183;23;20252;-85
2021/08/28 08:10:31;;;;;;;3.42;3.13;;;;;;;16.79;81.59;95538.44;4931442;29;20316;-83
2021/08/28 08:12:57;;;;;;;3.20;2.72;;;;;;;16.64;83.61;95543.97;5047925;28;20210;-85
2021/08/28 08:15:27;;;;;;;2.95;2.67;;;;;;;16.52;83.84;95540.47;5032653;28;20261;-83
2021/08/28 08:17:56;;;;;;;2.65;2.45;;;;;;;16.37;85.61;95538.19;5032918;28;21893;-83
2021/08/28 08:20:25;;;;;;;2.45;2.25;;;;;;;16.28;86.35;95541.28;5049407;28;20225;-82
2021/08/28 08:22:59;;;;;;;2.63;2.42;;;;;;;16.20;85.87;95544.94;5052430;28;20347;-84
2021/08/28 08:25:29;;;;;;;3.80;2.40;;;;;;;16.15;84.79;95544.78;5049116;28;20790;-86
2021/08/28 08:28:47;;;;;;;2.75;2.55;;;;;;;16.12;84.02;95547.81;5037462;28;20222;-85
2021/08/28 08:37:28;;;;;;;5.18;4.25;;;;;;;16.00;88.08;95547.69;4967323;28;20261;-85
2021/08/28 08:40:25;;;;;;;3.20;2.90;;;;;;;16.17;86.37;95547.94;4983510;28;20582;-88
2021/08/28 08:42:55;;;;;;;3.05;2.75;;;;;;;16.26;84.29;95540.69;4987172;28;20280;-85
2021/08/28 08:45:25;;;;;;;3.17;2.80;;;;;;;16.32;84.45;95539.84;5001672;28;20571;-84
2021/08/28 08:47:57;;;;;;;2.92;2.67;;;;;;;16.20;86.60;95537.13;5040334;28;20865;-84
2021/08/28 08:50:25;;;;;;;2.97;2.40;;;;;;;16.25;85.04;95547.69;5050378;28;20210;-82
2021/08/28 08:52:56;;;;;;;2.63;2.40;;;;;;;16.29;83.42;95538.47;5052002;28;20198;-85
2021/08/28 08:55:22;;;;;;;4.13;2.60;;;;;;;16.28;84.29;95541.28;5051674;28;20228;-85
2021/08/28 08:57:58;;;;;;;3.10;2.80;;;;;;;16.33;85.26;95550.03;5047927;28;20280;-85
2021/08/28 09:00:38;;;;;;;3.30;2.70;;;;;;;16.31;90.33;95548.66;5047515;28;20256;-83
2021/08/28 09:03:17;;;;;;;2.97;2.78;;;;;;;16.34;86.74;95543.03;5035185;28;20920;-84
2021/08/28 09:05:44;;;;;;;2.80;2.28;;;;;;;16.37;85.00;95548.59;5051663;28;20190;-83
2021/08/28 09:15:18;;;;;;;9.05;8.15;;;;;;;16.46;87.07;95546.53;5005214;28;20422;-86
2021/08/28 09:18:01;;;;;;;8.13;7.32;;;;;;;16.51;85.85;95547.47;5033472;28;20225;-85
2021/08/28 09:20:39;;;;;;;14.77;13.38;;;;;;;16.49;88.03;95549.50;5048600;28;20299;-84
2021/08/28 09:23:10;;;;;;;13.55;12.25;;;;;;;16.53;86.49;95545.47;5049276;28;20252;-86
2021/08/28 09:25:43;;;;;;;5.78;5.20;;;;;;;16.57;85.45;95551.00;5050478;28;20215;-85
2021/08/28 09:28:11;;;;;;;3.20;2.90;;;;;;;16.59;86.09;95551.59;5050718;28;20281;-84
2021/08/28 09:30:45;;;;;;;2.75;2.55;;;;;;;16.56;85.26;95552.00;5039846;28;20754;-84
2021/08/28 09:36:00;;;;;;;4.50;3.63;;;;;;;16.61;83.12;95553.97;5038084;28;20217;-86
2021/08/28 09:38:31;;;;;;;9.27;8.48;;;;;;;16.67;83.58;95555.75;5048138;28;20200;-85
2021/08/28 09:41:15;;;;;;;6.30;5.70;;;;;;;16.77;82.52;95556.84;5048594;28;20228;-85
2021/08/28 09:43:46;;;;;;;3.70;3.40;;;;;;;16.87;82.16;95561.56;5049373;28;20205;-85
2021/08/28 09:46:31;;;;;;;4.47;3.47;;;;;;;16.88;83.58;95563.16;5048764;28;20672;-85
2021/08/28 09:49:18;;;;;;;6.43;5.82;;;;;;;16.87;82.25;95554.56;5041247;28;20679;-86
2021/08/28 09:51:48;;;;;;;4.05;3.75;;;;;;;16.90;82.60;95556.72;5027872;28;20224;-84
2021/08/28 09:54:19;;;;;;;4.13;2.85;;;;;;;16.92;80.40;95559.13;5050474;28;20587;-85
2021/08/28 09:57:05;;;;;;;3.53;2.38;;;;;;;16.79;76.50;95549.63;5047612;28;20285;-84
2021/08/28 09:59:39;;;;;;;2.50;2.30;;;;;;;16.77;76.88;95546.44;5047456;28;20699;-86
2021/08/28 10:02:07;;;;;;;2.30;2.10;;;;;;;16.89;76.21;95547.34;5048548;28;20196;-85
2021/08/28 10:05:03;;;;;;;2.55;2.35;;;;;;;17.17;78.77;95538.19;5047580;28;20218;-85
2021/08/28 10:07:39;;;;;;;3.08;2.25;;;;;;;17.22;76.56;95546.94;5029949;28;20194;-85
2021/08/28 10:10:12;;;;;;;2.15;2.05;;;;;;;17.19;77.86;95547.38;5042255;28;20217;-86
2021/08/28 10:13:01;;;;;;;1.90;1.80;;;;;;;17.01;73.93;95541.41;5036119;28;20193;-85
2021/08/28 10:15:31;;;;;;;2.30;2.10;;;;;;;16.99;77.39;95549.41;5034507;28;20277;-83
2021/08/28 10:17:59;;;;;;;1.90;1.80;;;;;;;16.85;76.59;95540.97;5037968;28;20730;-84
2021/08/28 10:20:28;;;;;;;2.33;2.13;;;;;;;16.80;77.50;95535.63;5045020;28;20692;-84
2021/08/28 10:23:01;;;;;;;1.95;1.85;;;;;;;17.06;75.87;95533.75;5047839;28;20288;-86
2021/08/28 10:25:32;;;;;;;2.13;1.95;;;;;;;17.32;74.23;95535.25;5047328;28;20196;-84
2021/08/28 10:28:06;;;;;;;2.22;2.03;;;;;;;17.57;72.00;95535.91;5046979;28;20197;-86
2021/08/28 10:30:34;;;;;;;1.77;1.67;;;;;;;17.58;72.08;95533.06;5047438;28;20217;-86
2021/08/28 10:33:04;;;;;;;1.55;1.45;;;;;;;17.80;72.79;95533.41;5048112;28;20201;-85
2021/08/28 10:35:39;;;;;;;1.55;1.45;;;;;;;18.28;70.36;95528.03;5049404;28;20559;-86
2021/08/28 10:38:08;;;;;;;1.30;1.20;;;;;;;18.62;72.00;95525.72;5048264;28;20703;-84
2021/08/28 10:40:46;;;;;;;3.97;1.20;;;;;;;18.48;67.32;95532.13;5048301;28;20217;-85
2021/08/28 10:43:21;;;;;;;1.20;1.00;;;;;;;18.34;69.37;95530.78;5048404;28;20193;-85
2021/08/28 10:45:49;;;;;;;1.00;1.00;;;;;;;18.15;69.28;95532.69;5048312;28;20343;-85
2021/08/28 10:48:26;;;;;;;1.15;1.05;;;;;;;17.97;69.23;95530.16;5047212;28;20766;-82
2021/08/28 10:50:57;;;;;;;0.90;0.90;;;;;;;17.87;69.84;95530.72;5048562;28;20267;-87
2021/08/28 10:53:24;;;;;;;1.20;1.10;;;;;;;17.74;71.51;95529.06;5046032;28;20202;-85
2021/08/28 10:55:59;;;;;;;1.83;1.00;;;;;;;17.69;71.61;95530.78;5045789;28;20193;-84
2021/08/28 10:58:48;;;;;;;0.95;0.95;;;;;;;17.66;69.49;95531.22;5047807;28;20193;-83
2021/08/28 11:01:18;;;;;;;1.02;0.90;;;;;;;17.78;69.99;95532.84;5047964;28;20703;-85
2021/08/28 11:03:52;;;;;;;1.20;1.10;;;;;;;17.78;67.88;95540.66;5048386;28;20193;-85
2021/08/28 11:06:26;;;;;;;0.90;0.90;;;;;;;17.68;69.36;95537.78;5048017;28;20212;-85
2021/08/28 11:08:55;;;;;;;2.05;1.45;;;;;;;17.70;70.82;95527.16;5047851;28;20220;-84
2021/08/28 11:11:29;;;;;;;1.70;1.20;;;;;;;17.57;71.27;95536.69;5047633;28;20209;-84
2021/08/28 11:14:04;;;;;;;1.40;1.30;;;;;;;17.47;71.05;95535.66;5045805;28;20201;-85
2021/08/28 11:17:04;;;;;;;1.35;1.27;;;;;;;17.45;72.88;95542.88;5044936;28;20224;-84
2021/08/28 11:19:52;;;;;;;1.27;1.17;;;;;;;17.37;73.51;95541.38;5029259;28;20239;-85
2021/08/28 11:22:41;;;;;;;1.20;1.20;;;;;;;17.23;72.71;95543.34;5046986;28;20197;-85
2021/08/28 11:25:09;;;;;;;1.33;1.23;;;;;;;16.99;75.15;95541.63;5047380;28;20227;-85
2021/08/28 11:27:41;;;;;;;1.42;1.23;;;;;;;16.96;73.74;95552.44;5046938;28;20260;-85
2021/08/28 11:30:20;;;;;;;1.08;1.08;;;;;;;16.88;75.29;95550.16;5046468;28;20225;-83
2021/08/28 11:33:01;;;;;;;2.38;1.23;;;;;;;16.73;72.99;95547.91;5047683;28;20272;-85
2021/08/28 11:38:13;;;;;;;6.07;3.85;;;;;;;16.56;74.53;95547.59;5044711;28;20228;-85
2021/08/28 11:40:41;;;;;;;1.60;1.50;;;;;;;16.53;73.01;95555.88;5036148;28;20352;-85
2021/08/28 11:43:21;;;;;;;3.20;2.90;;;;;;;16.48;74.28;95549.72;5049361;28;20217;-83
2021/08/28 11:45:50;;;;;;;4.75;2.22;;;;;;;16.43;74.36;95539.16;5048971;28;20189;-84
2021/08/28 11:48:16;;;;;;;1.38;1.27;;;;;;;16.50;75.90;95545.09;5047789;28;20201;-82
2021/08/28 11:50:43;;;;;;;6.90;4.82;;;;;;;16.51;76.91;95544.09;5047679;28;20347;-84
2021/08/28 11:53:10;;;;;;;5.78;4.25;;;;;;;16.55;77.76;95553.81;5049030;28;20221;-83
2021/08/28 11:55:40;;;;;;;2.55;1.27;;;;;;;16.52;74.85;95550.88;5048251;28;20197;-84
2021/08/28 11:58:16;;;;;;;1.58;1.00;;;;;;;16.48;75.47;95549.72;5049613;28;20221;-81
2021/08/28 12:00:43;;;;;;;0.98;0.98;;;;;;;16.44;75.88;95551.94;5049369;28;20221;-85
2021/08/28 12:03:11;;;;;;;1.10;1.00;;;;;;;16.39;77.65;95554.38;5050132;28;20534;-83
2021/08/28 12:05:38;;;;;;;0.90;0.90;;;;;;;16.44;77.32;95557.13;5048726;28;20235;-81
2021/08/28 12:08:05;;;;;;;1.55;1.10;;;;;;;16.40;78.20;95552.56;5048618;28;20668;-83
2021/08/28 12:10:33;;;;;;;1.67;1.20;;;;;;;16.48;76.59;95549.72;5048482;28;20338;-87
2021/08/28 12:13:02;;;;;;;1.15;1.05;;;;;;;16.54;75.44;95551.47;5033916;28;20229;-83
2021/08/28 12:15:30;;;;;;;1.10;1.10;;;;;;;16.66;75.32;95560.16;5045638;28;20194;-84
2021/08/28 12:18:02;;;;;;;1.13;0.90;;;;;;;16.66;74.79;95557.56;5047489;28;20225;-83
2021/08/28 12:20:32;;;;;;;1.00;1.00;;;;;;;16.66;76.91;95567.16;5047847;28;20227;-81
2021/08/28 12:23:16;;;;;;;1.15;1.10;;;;;;;16.72;74.04;95564.50;5048916;28;20292;-83
2021/08/28 12:25:43;;;;;;;0.80;0.80;;;;;;;16.74;74.59;95569.50;5048304;28;20198;-84
2021/08/28 12:28:09;;;;;;;2.40;0.98;;;;;;;16.74;72.71;95578.06;5048406;28;20709;-85
2021/08/28 12:30:36;;;;;;;0.90;0.90;;;;;;;16.73;72.79;95573.91;5058452;28;20221;-84
2021/08/28 12:33:10;;;;;;;1.65;1.10;;;;;;;16.76;71.35;95576.06;5042391;28;20206;-84
2021/08/28 12:35:38;;;;;;;0.77;0.77;;;;;;;16.73;71.83;95570.50;5052979;28;20691;-85
2021/08/28 12:38:19;;;;;;;1.08;1.00;;;;;;;16.76;73.27;95567.47;5052057;28;20232;-84
2021/08/28 12:40:45;;;;;;;0.73;0.73;;;;;;;16.89;71.06;95567.34;5050953;28;20286;-83
2021/08/28 12:43:14;;;;;;;1.00;0.90;;;;;;;16.95;69.91;95573.47;5052878;28;20300;-84
2021/08/28 12:45:44;;;;;;;0.88;0.88;;;;;;;17.00;70.30;95569.22;5052843;28;20205;-84
2021/08/28 12:48:11;;;;;;;1.10;1.00;;;;;;;17.03;69.00;95566.19;5047271;28;20202;-85
2021/08/28 12:50:39;;;;;;;1.00;1.00;;;;;;;16.98;70.22;95568.63;5052495;28;20312;-86
2021/08/28 12:53:06;;;;;;;0.95;0.93;;;;;;;16.99;68.30;95564.22;5052530;28;20205;-84
2021/08/28 12:55:34;;;;;;;1.08;1.05;;;;;;;17.07;69.55;95566.56;5051929;28;20263;-84
2021/08/28 12:58:08;;;;;;;2.00;1.55;;;;;;;17.12;69.51;95570.09;5052182;28;20229;-86
2021/08/28 13:00:40;;;;;;;2.25;1.20;;;;;;;17.20;67.53;95571.59;5051545;28;20217;-84
2021/08/28 13:03:24;;;;;;;2.25;1.25;;;;;;;17.24;67.35;95570.94;5052612;28;20771;-85
2021/08/28 13:05:52;;;;;;;0.93;0.90;;;;;;;17.23;65.76;95576.38;5051088;28;21010;-84
2021/08/28 13:08:30;;;;;;;1.40;1.20;;;;;;;17.22;66.40;95570.38;5051605;28;20197;-84
2021/08/28 13:10:56;;;;;;;1.13;1.05;;;;;;;17.25;65.24;95571.75;5050913;28;20217;-85
2021/08/28 13:13:22;;;;;;;0.90;0.90;;;;;;;17.32;65.38;95569.84;5051008;28;20193;-85
2021/08/28 13:15:49;;;;;;;1.58;0.93;;;;;;;17.34;64.40;95572.22;5050953;28;20620;-84
2021/08/28 13:18:20;;;;;;;0.90;0.90;;;;;;;17.27;64.69;95567.91;5051044;28;20228;-84
2021/08/28 13:20:50;;;;;;;0.90;0.90;;;;;;;17.31;64.02;95560.47;5051832;28;20222;-86
2021/08/28 13:23:19;;;;;;;0.80;0.80;;;;;;;17.33;64.07;95568.03;5052317;28;20345;-85
2021/08/28 13:25:49;;;;;;;0.90;0.90;;;;;;;17.37;64.26;95559.59;5051809;28;20224;-84
2021/08/28 13:28:19;;;;;;;1.10;1.10;;;;;;;17.24;68.11;95562.34;5051699;28;20208;-84
2021/08/28 13:31:35;;;;;;;0.88;0.88;;;;;;;17.30;65.99;95568.50;5051454;28;20614;-84